sensor_id;sensor_type;location;lat;lon;timestamp;temperature;humidity
5210;DHT22;2624;48.048;11.706;2023-03-24T00:04:11;11.70;99.90
5210;DHT22;2624;48.048;11.706;2023-03-24T00:09:15;11.70;99.90
5210;DHT22;2624;48.048;11.706;2023-03-24T00:14:17;11.60;99.90
5210;DHT22;2624;48.048;11.706;2023-03-24T00:19:19;11.60;99.90
5210;DHT22;2624;48.048;11.706;2023-03-24T00:24:23;11.60;99.90
5210;DHT22;2624;48.048;11.706;2023-03-24T00:29:25;11.70;99.90
5210;DHT22;2624;48.048;11.706;2023-03-24T00:34:27;11.40;99.90
5210;DHT22;2624;48.048;11.706;2023-03-24T00:39:30;11.20;99.90
5210;DHT22;2624;48.048;11.706;2023-03-24T00:44:32;11.30;99.90
5210;DHT22;2624;48.048;11.706;2023-03-24T00:49:34;11.30;99.90
5210;DHT22;2624;48.048;11.706;2023-03-24T00:54:47;11.20;99.90
5210;DHT22;2624;48.048;11.706;2023-03-24T00:59:50;11.20;99.90
5210;DHT22;2624;48.048;11.706;2023-03-24T01:04:52;11.20;99.90
5210;DHT22;2624;48.048;11.706;2023-03-24T01:09:57;11.20;99.90
5210;DHT22;2624;48.048;11.706;2023-03-24T01:15:00;11.30;99.90
5210;DHT22;2624;48.048;11.706;2023-03-24T01:20:06;11.30;99.90
5210;DHT22;2624;48.048;11.706;2023-03-24T01:25:13;11.30;99.90
5210;DHT22;2624;48.048;11.706;2023-03-24T01:30:18;11.40;99.90
5210;DHT22;2624;48.048;11.706;2023-03-24T01:35:22;11.40;99.90
5210;DHT22;2624;48.048;11.706;2023-03-24T01:40:28;11.50;99.90
5210;DHT22;2624;48.048;11.706;2023-03-24T01:45:54;11.50;99.90
5210;DHT22;2624;48.048;11.706;2023-03-24T01:51:01;11.50;99.90
5210;DHT22;2624;48.048;11.706;2023-03-24T01:56:07;11.30;99.90
5210;DHT22;2624;48.048;11.706;2023-03-24T02:01:10;11.10;99.90
5210;DHT22;2624;48.048;11.706;2023-03-24T02:06:13;11.20;99.90
5210;DHT22;2624;48.048;11.706;2023-03-24T02:11:17;11.10;99.90
5210;DHT22;2624;48.048;11.706;2023-03-24T02:16:29;11.00;99.90
5210;DHT22;2624;48.048;11.706;2023-03-24T02:22:09;11.00;99.90
5210;DHT22;2624;48.048;11.706;2023-03-24T02:27:39;11.00;99.90
5210;DHT22;2624;48.048;11.706;2023-03-24T02:38:33;11.00;99.90
5210;DHT22;2624;48.048;11.706;2023-03-24T02:43:48;11.20;99.90
5210;DHT22;2624;48.048;11.706;2023-03-24T02:49:04;11.20;99.90
5210;DHT22;2624;48.048;11.706;2023-03-24T02:54:11;11.10;99.90
5210;DHT22;2624;48.048;11.706;2023-03-24T02:59:18;11.20;99.90
5210;DHT22;2624;48.048;11.706;2023-03-24T03:04:26;11.10;99.90
5210;DHT22;2624;48.048;11.706;2023-03-24T03:09:29;11.00;99.90
5210;DHT22;2624;48.048;11.706;2023-03-24T03:14:35;11.20;99.90
5210;DHT22;2624;48.048;11.706;2023-03-24T03:19:40;11.20;99.90
5210;DHT22;2624;48.048;11.706;2023-03-24T03:24:45;10.90;99.90
5210;DHT22;2624;48.048;11.706;2023-03-24T03:29:54;10.70;99.90
5210;DHT22;2624;48.048;11.706;2023-03-24T03:35:01;10.70;99.90
5210;DHT22;2624;48.048;11.706;2023-03-24T03:40:09;10.60;99.90
5210;DHT22;2624;48.048;11.706;2023-03-24T03:45:14;10.60;99.90
5210;DHT22;2624;48.048;11.706;2023-03-24T03:50:16;10.60;99.90
5210;DHT22;2624;48.048;11.706;2023-03-24T03:55:18;10.50;99.90
5210;DHT22;2624;48.048;11.706;2023-03-24T04:00:21;10.40;99.90
5210;DHT22;2624;48.048;11.706;2023-03-24T04:05:27;10.40;99.90
5210;DHT22;2624;48.048;11.706;2023-03-24T04:10:39;10.30;99.90
5210;DHT22;2624;48.048;11.706;2023-03-24T04:15:53;10.30;99.90
5210;DHT22;2624;48.048;11.706;2023-03-24T04:21:09;10.40;99.90
5210;DHT22;2624;48.048;11.706;2023-03-24T04:26:18;10.70;99.90
5210;DHT22;2624;48.048;11.706;2023-03-24T04:31:30;10.50;99.90
5210;DHT22;2624;48.048;11.706;2023-03-24T04:36:36;10.50;99.90
5210;DHT22;2624;48.048;11.706;2023-03-24T04:41:43;10.50;99.90
5210;DHT22;2624;48.048;11.706;2023-03-24T04:46:49;10.60;99.90
5210;DHT22;2624;48.048;11.706;2023-03-24T04:51:51;10.60;99.90
5210;DHT22;2624;48.048;11.706;2023-03-24T04:56:54;10.70;99.90
5210;DHT22;2624;48.048;11.706;2023-03-24T05:01:58;10.70;99.90
5210;DHT22;2624;48.048;11.706;2023-03-24T05:07:00;10.60;99.90
5210;DHT22;2624;48.048;11.706;2023-03-24T05:12:03;10.60;99.90
5210;DHT22;2624;48.048;11.706;2023-03-24T05:17:06;10.50;99.90
5210;DHT22;2624;48.048;11.706;2023-03-24T05:22:08;10.70;99.90
5210;DHT22;2624;48.048;11.706;2023-03-24T05:27:10;10.60;99.90
5210;DHT22;2624;48.048;11.706;2023-03-24T05:32:13;10.50;99.90
5210;DHT22;2624;48.048;11.706;2023-03-24T05:37:15;10.60;99.90
5210;DHT22;2624;48.048;11.706;2023-03-24T05:42:17;10.70;99.90
5210;DHT22;2624;48.048;11.706;2023-03-24T05:47:20;10.50;99.90
5210;DHT22;2624;48.048;11.706;2023-03-24T05:52:22;10.70;99.90
5210;DHT22;2624;48.048;11.706;2023-03-24T05:57:24;10.60;99.90
5210;DHT22;2624;48.048;11.706;2023-03-24T06:02:27;10.70;99.90
5210;DHT22;2624;48.048;11.706;2023-03-24T06:07:29;10.70;99.90
5210;DHT22;2624;48.048;11.706;2023-03-24T06:12:31;10.70;99.90
5210;DHT22;2624;48.048;11.706;2023-03-24T06:17:35;10.50;99.90
5210;DHT22;2624;48.048;11.706;2023-03-24T06:22:37;10.40;99.90
5210;DHT22;2624;48.048;11.706;2023-03-24T06:27:41;10.30;99.90
5210;DHT22;2624;48.048;11.706;2023-03-24T06:32:47;10.30;99.90
5210;DHT22;2624;48.048;11.706;2023-03-24T06:37:49;10.40;99.90
5210;DHT22;2624;48.048;11.706;2023-03-24T06:42:51;10.50;99.90
5210;DHT22;2624;48.048;11.706;2023-03-24T06:47:54;10.50;99.90
5210;DHT22;2624;48.048;11.706;2023-03-24T06:52:56;10.60;99.90
5210;DHT22;2624;48.048;11.706;2023-03-24T06:57:58;10.70;99.90
5210;DHT22;2624;48.048;11.706;2023-03-24T07:03:01;10.70;99.90
5210;DHT22;2624;48.048;11.706;2023-03-24T07:08:03;10.70;99.90
5210;DHT22;2624;48.048;11.706;2023-03-24T07:13:06;10.70;99.90
5210;DHT22;2624;48.048;11.706;2023-03-24T07:18:09;10.70;99.90
5210;DHT22;2624;48.048;11.706;2023-03-24T07:23:13;10.70;99.90
5210;DHT22;2624;48.048;11.706;2023-03-24T07:28:15;10.80;99.90
5210;DHT22;2624;48.048;11.706;2023-03-24T07:33:18;10.70;99.90
5210;DHT22;2624;48.048;11.706;2023-03-24T07:38:20;10.70;99.90
5210;DHT22;2624;48.048;11.706;2023-03-24T07:43:22;10.70;99.90
5210;DHT22;2624;48.048;11.706;2023-03-24T07:48:25;10.80;99.90
5210;DHT22;2624;48.048;11.706;2023-03-24T07:53:26;10.80;99.90
5210;DHT22;2624;48.048;11.706;2023-03-24T07:58:28;10.70;99.90
5210;DHT22;2624;48.048;11.706;2023-03-24T08:03:31;10.80;99.90
5210;DHT22;2624;48.048;11.706;2023-03-24T08:08:33;10.80;99.90
5210;DHT22;2624;48.048;11.706;2023-03-24T08:13:35;10.80;99.90
5210;DHT22;2624;48.048;11.706;2023-03-24T08:18:38;10.80;99.90
5210;DHT22;2624;48.048;11.706;2023-03-24T08:23:40;10.80;99.90
5210;DHT22;2624;48.048;11.706;2023-03-24T08:28:42;10.80;99.90
5210;DHT22;2624;48.048;11.706;2023-03-24T08:33:45;10.90;99.90
5210;DHT22;2624;48.048;11.706;2023-03-24T08:38:47;10.90;99.90
5210;DHT22;2624;48.048;11.706;2023-03-24T08:43:51;10.90;99.90
5210;DHT22;2624;48.048;11.706;2023-03-24T08:48:54;11.00;99.90
5210;DHT22;2624;48.048;11.706;2023-03-24T08:53:57;11.10;99.90
5210;DHT22;2624;48.048;11.706;2023-03-24T08:58:58;11.20;99.90
5210;DHT22;2624;48.048;11.706;2023-03-24T09:04:02;11.30;99.90
5210;DHT22;2624;48.048;11.706;2023-03-24T09:09:04;11.30;99.90
5210;DHT22;2624;48.048;11.706;2023-03-24T09:14:06;11.40;99.90
5210;DHT22;2624;48.048;11.706;2023-03-24T09:19:10;11.40;99.90
5210;DHT22;2624;48.048;11.706;2023-03-24T09:24:11;11.40;99.90
5210;DHT22;2624;48.048;11.706;2023-03-24T09:29:13;11.40;99.90
5210;DHT22;2624;48.048;11.706;2023-03-24T09:34:16;11.40;99.90
5210;DHT22;2624;48.048;11.706;2023-03-24T09:39:18;11.40;99.90
5210;DHT22;2624;48.048;11.706;2023-03-24T09:44:23;11.50;99.90
5210;DHT22;2624;48.048;11.706;2023-03-24T09:49:29;11.50;99.90
5210;DHT22;2624;48.048;11.706;2023-03-24T09:54:39;11.50;99.90
5210;DHT22;2624;48.048;11.706;2023-03-24T09:59:43;11.50;99.90
5210;DHT22;2624;48.048;11.706;2023-03-24T10:04:46;11.50;99.90
5210;DHT22;2624;48.048;11.706;2023-03-24T10:09:52;11.50;99.90
5210;DHT22;2624;48.048;11.706;2023-03-24T10:15:09;11.40;99.90
5210;DHT22;2624;48.048;11.706;2023-03-24T10:20:23;11.40;99.90
5210;DHT22;2624;48.048;11.706;2023-03-24T10:25:38;11.40;99.90
5210;DHT22;2624;48.048;11.706;2023-03-24T10:30:43;11.50;99.90
5210;DHT22;2624;48.048;11.706;2023-03-24T10:35:56;11.50;99.90
5210;DHT22;2624;48.048;11.706;2023-03-24T10:41:01;11.50;99.90
5210;DHT22;2624;48.048;11.706;2023-03-24T10:46:03;11.50;99.90
5210;DHT22;2624;48.048;11.706;2023-03-24T10:51:12;11.50;99.90
5210;DHT22;2624;48.048;11.706;2023-03-24T10:56:16;11.60;99.90
5210;DHT22;2624;48.048;11.706;2023-03-24T11:01:23;11.60;99.90
5210;DHT22;2624;48.048;11.706;2023-03-24T11:06:28;11.60;99.90
5210;DHT22;2624;48.048;11.706;2023-03-24T11:11:30;11.60;99.90
5210;DHT22;2624;48.048;11.706;2023-03-24T11:16:36;11.60;99.90
5210;DHT22;2624;48.048;11.706;2023-03-24T11:21:42;11.50;99.90
5210;DHT22;2624;48.048;11.706;2023-03-24T11:26:45;11.50;99.90
5210;DHT22;2624;48.048;11.706;2023-03-24T11:31:53;11.60;99.90
5210;DHT22;2624;48.048;11.706;2023-03-24T11:36:58;11.60;99.90
5210;DHT22;2624;48.048;11.706;2023-03-24T11:42:04;11.70;99.90
5210;DHT22;2624;48.048;11.706;2023-03-24T11:47:10;11.60;99.90
5210;DHT22;2624;48.048;11.706;2023-03-24T11:52:20;11.60;99.90
5210;DHT22;2624;48.048;11.706;2023-03-24T11:57:35;11.70;99.90
5210;DHT22;2624;48.048;11.706;2023-03-24T12:02:48;11.80;99.90
5210;DHT22;2624;48.048;11.706;2023-03-24T12:08:22;11.80;99.90
5210;DHT22;2624;48.048;11.706;2023-03-24T12:13:32;12.00;99.90
5210;DHT22;2624;48.048;11.706;2023-03-24T12:18:46;12.10;99.90
5210;DHT22;2624;48.048;11.706;2023-03-24T12:23:57;12.00;99.90
5210;DHT22;2624;48.048;11.706;2023-03-24T12:29:21;12.20;99.90
5210;DHT22;2624;48.048;11.706;2023-03-24T12:35:00;12.30;99.90
5210;DHT22;2624;48.048;11.706;2023-03-24T12:45:38;12.30;99.90
5210;DHT22;2624;48.048;11.706;2023-03-24T12:50:50;12.30;99.90
5210;DHT22;2624;48.048;11.706;2023-03-24T12:56:00;12.30;99.90
5210;DHT22;2624;48.048;11.706;2023-03-24T13:01:06;12.30;99.90
5210;DHT22;2624;48.048;11.706;2023-03-24T13:06:16;12.30;99.90
5210;DHT22;2624;48.048;11.706;2023-03-24T13:11:25;12.40;99.90
5210;DHT22;2624;48.048;11.706;2023-03-24T13:16:34;12.40;99.90
5210;DHT22;2624;48.048;11.706;2023-03-24T13:21:38;12.40;99.90
5210;DHT22;2624;48.048;11.706;2023-03-24T13:26:46;12.40;99.90
5210;DHT22;2624;48.048;11.706;2023-03-24T13:31:51;12.30;99.90
5210;DHT22;2624;48.048;11.706;2023-03-24T13:36:57;12.30;99.90
5210;DHT22;2624;48.048;11.706;2023-03-24T13:42:02;12.20;99.90
5210;DHT22;2624;48.048;11.706;2023-03-24T13:47:09;12.30;99.90
5210;DHT22;2624;48.048;11.706;2023-03-24T13:52:26;12.20;99.90
5210;DHT22;2624;48.048;11.706;2023-03-24T13:57:31;12.30;99.90
5210;DHT22;2624;48.048;11.706;2023-03-24T14:02:41;12.30;99.90
5210;DHT22;2624;48.048;11.706;2023-03-24T14:07:47;12.40;99.90
5210;DHT22;2624;48.048;11.706;2023-03-24T14:12:56;12.30;99.90
5210;DHT22;2624;48.048;11.706;2023-03-24T14:23:35;12.30;99.90
5210;DHT22;2624;48.048;11.706;2023-03-24T14:28:40;12.40;99.90
5210;DHT22;2624;48.048;11.706;2023-03-24T14:33:55;12.40;99.90
5210;DHT22;2624;48.048;11.706;2023-03-24T14:39:21;12.40;99.90
5210;DHT22;2624;48.048;11.706;2023-03-24T14:44:55;12.30;99.90
5210;DHT22;2624;48.048;11.706;2023-03-24T14:49:58;12.40;99.90
5210;DHT22;2624;48.048;11.706;2023-03-24T14:55:04;12.30;99.90
5210;DHT22;2624;48.048;11.706;2023-03-24T15:00:15;12.30;99.90
5210;DHT22;2624;48.048;11.706;2023-03-24T15:05:22;12.30;99.90
5210;DHT22;2624;48.048;11.706;2023-03-24T15:10:25;12.30;99.90
5210;DHT22;2624;48.048;11.706;2023-03-24T15:15:29;12.30;99.90
5210;DHT22;2624;48.048;11.706;2023-03-24T15:20:32;12.20;99.90
5210;DHT22;2624;48.048;11.706;2023-03-24T15:25:34;12.20;99.90
5210;DHT22;2624;48.048;11.706;2023-03-24T15:30:37;12.10;99.90
5210;DHT22;2624;48.048;11.706;2023-03-24T15:35:39;12.10;99.90
5210;DHT22;2624;48.048;11.706;2023-03-24T15:40:41;12.00;99.90
5210;DHT22;2624;48.048;11.706;2023-03-24T15:45:55;12.00;99.90
5210;DHT22;2624;48.048;11.706;2023-03-24T15:51:00;12.00;99.90
5210;DHT22;2624;48.048;11.706;2023-03-24T15:56:05;12.00;99.90
5210;DHT22;2624;48.048;11.706;2023-03-24T16:01:18;11.90;99.90
5210;DHT22;2624;48.048;11.706;2023-03-24T16:06:27;11.90;99.90
5210;DHT22;2624;48.048;11.706;2023-03-24T16:11:30;11.90;99.90
5210;DHT22;2624;48.048;11.706;2023-03-24T16:16:36;11.80;99.90
5210;DHT22;2624;48.048;11.706;2023-03-24T16:21:38;11.70;99.90
5210;DHT22;2624;48.048;11.706;2023-03-24T16:26:40;11.60;99.90
5210;DHT22;2624;48.048;11.706;2023-03-24T16:31:44;11.60;99.90
5210;DHT22;2624;48.048;11.706;2023-03-24T16:36:50;11.00;99.90
5210;DHT22;2624;48.048;11.706;2023-03-24T16:41:52;10.90;99.90
5210;DHT22;2624;48.048;11.706;2023-03-24T16:46:55;10.80;99.90
5210;DHT22;2624;48.048;11.706;2023-03-24T16:51:57;10.70;99.90
5210;DHT22;2624;48.048;11.706;2023-03-24T16:56:59;10.80;99.90
5210;DHT22;2624;48.048;11.706;2023-03-24T17:02:02;10.70;99.90
5210;DHT22;2624;48.048;11.706;2023-03-24T17:07:05;10.60;99.90
5210;DHT22;2624;48.048;11.706;2023-03-24T17:12:08;10.50;99.90
5210;DHT22;2624;48.048;11.706;2023-03-24T17:17:11;10.30;99.90
5210;DHT22;2624;48.048;11.706;2023-03-24T17:22:14;10.40;99.90
5210;DHT22;2624;48.048;11.706;2023-03-24T17:27:18;10.30;99.90
5210;DHT22;2624;48.048;11.706;2023-03-24T17:32:26;10.20;99.90
5210;DHT22;2624;48.048;11.706;2023-03-24T17:37:29;10.20;99.90
5210;DHT22;2624;48.048;11.706;2023-03-24T17:42:31;10.20;99.90
5210;DHT22;2624;48.048;11.706;2023-03-24T17:47:34;10.10;99.90
5210;DHT22;2624;48.048;11.706;2023-03-24T17:52:36;10.10;99.90
5210;DHT22;2624;48.048;11.706;2023-03-24T17:57:39;9.90;99.90
5210;DHT22;2624;48.048;11.706;2023-03-24T18:02:43;10.00;99.90
5210;DHT22;2624;48.048;11.706;2023-03-24T18:07:45;9.90;99.90
5210;DHT22;2624;48.048;11.706;2023-03-24T18:12:47;9.90;99.90
5210;DHT22;2624;48.048;11.706;2023-03-24T18:17:50;9.90;99.90
5210;DHT22;2624;48.048;11.706;2023-03-24T18:22:52;9.70;99.90
5210;DHT22;2624;48.048;11.706;2023-03-24T18:27:53;9.80;99.90
5210;DHT22;2624;48.048;11.706;2023-03-24T18:32:57;9.70;99.90
5210;DHT22;2624;48.048;11.706;2023-03-24T18:38:00;9.80;99.90
5210;DHT22;2624;48.048;11.706;2023-03-24T18:43:02;9.70;99.90
5210;DHT22;2624;48.048;11.706;2023-03-24T18:48:05;9.70;99.90
5210;DHT22;2624;48.048;11.706;2023-03-24T18:53:07;9.80;99.90
5210;DHT22;2624;48.048;11.706;2023-03-24T18:58:09;9.70;99.90
5210;DHT22;2624;48.048;11.706;2023-03-24T19:03:16;9.70;99.90
5210;DHT22;2624;48.048;11.706;2023-03-24T19:08:19;9.70;99.90
5210;DHT22;2624;48.048;11.706;2023-03-24T19:13:21;9.70;99.90
5210;DHT22;2624;48.048;11.706;2023-03-24T19:18:25;9.60;99.90
5210;DHT22;2624;48.048;11.706;2023-03-24T19:23:27;9.60;99.90
5210;DHT22;2624;48.048;11.706;2023-03-24T19:28:31;9.50;99.90
5210;DHT22;2624;48.048;11.706;2023-03-24T19:33:35;9.50;99.90
5210;DHT22;2624;48.048;11.706;2023-03-24T19:38:38;9.50;99.90
5210;DHT22;2624;48.048;11.706;2023-03-24T19:43:40;9.50;99.90
5210;DHT22;2624;48.048;11.706;2023-03-24T19:48:43;9.50;99.90
5210;DHT22;2624;48.048;11.706;2023-03-24T19:53:44;9.50;99.90
5210;DHT22;2624;48.048;11.706;2023-03-24T19:58:46;9.40;99.90
5210;DHT22;2624;48.048;11.706;2023-03-24T20:03:49;9.40;99.90
5210;DHT22;2624;48.048;11.706;2023-03-24T20:08:51;9.30;99.90
5210;DHT22;2624;48.048;11.706;2023-03-24T20:13:53;9.20;99.90
5210;DHT22;2624;48.048;11.706;2023-03-24T20:18:56;9.50;99.90
5210;DHT22;2624;48.048;11.706;2023-03-24T20:23:58;9.60;99.90
5210;DHT22;2624;48.048;11.706;2023-03-24T20:29:00;9.70;99.90
5210;DHT22;2624;48.048;11.706;2023-03-24T20:34:03;9.70;99.90
5210;DHT22;2624;48.048;11.706;2023-03-24T20:39:04;9.70;99.90
5210;DHT22;2624;48.048;11.706;2023-03-24T20:44:07;9.70;99.90
5210;DHT22;2624;48.048;11.706;2023-03-24T20:49:10;9.70;99.90
5210;DHT22;2624;48.048;11.706;2023-03-24T20:54:16;9.70;99.90
5210;DHT22;2624;48.048;11.706;2023-03-24T20:59:18;9.70;99.90
5210;DHT22;2624;48.048;11.706;2023-03-24T21:04:22;9.60;99.90
5210;DHT22;2624;48.048;11.706;2023-03-24T21:09:24;9.60;99.90
5210;DHT22;2624;48.048;11.706;2023-03-24T21:14:26;9.40;99.90
5210;DHT22;2624;48.048;11.706;2023-03-24T21:19:30;9.50;99.90
5210;DHT22;2624;48.048;11.706;2023-03-24T21:24:32;9.50;99.90
5210;DHT22;2624;48.048;11.706;2023-03-24T21:29:34;9.50;99.90
5210;DHT22;2624;48.048;11.706;2023-03-24T21:34:37;9.50;99.90
5210;DHT22;2624;48.048;11.706;2023-03-24T21:39:39;9.40;99.90
5210;DHT22;2624;48.048;11.706;2023-03-24T21:44:41;9.40;99.90
5210;DHT22;2624;48.048;11.706;2023-03-24T21:49:46;9.50;99.90
5210;DHT22;2624;48.048;11.706;2023-03-24T21:54:48;9.60;99.90
5210;DHT22;2624;48.048;11.706;2023-03-24T21:59:50;9.50;99.90
5210;DHT22;2624;48.048;11.706;2023-03-24T22:04:53;9.60;99.90
5210;DHT22;2624;48.048;11.706;2023-03-24T22:10:00;9.50;99.90
5210;DHT22;2624;48.048;11.706;2023-03-24T22:15:03;9.50;99.90
5210;DHT22;2624;48.048;11.706;2023-03-24T22:20:07;9.50;99.90
5210;DHT22;2624;48.048;11.706;2023-03-24T22:25:12;9.50;99.90
5210;DHT22;2624;48.048;11.706;2023-03-24T22:30:14;9.50;99.90
5210;DHT22;2624;48.048;11.706;2023-03-24T22:35:17;9.50;99.90
5210;DHT22;2624;48.048;11.706;2023-03-24T22:40:20;9.40;99.90
5210;DHT22;2624;48.048;11.706;2023-03-24T22:45:22;9.40;99.90
5210;DHT22;2624;48.048;11.706;2023-03-24T22:50:25;9.30;99.90
5210;DHT22;2624;48.048;11.706;2023-03-24T22:55:27;9.40;99.90
5210;DHT22;2624;48.048;11.706;2023-03-24T23:00:28;9.20;99.90
5210;DHT22;2624;48.048;11.706;2023-03-24T23:05:31;9.30;99.90
5210;DHT22;2624;48.048;11.706;2023-03-24T23:10:34;9.20;99.90
5210;DHT22;2624;48.048;11.706;2023-03-24T23:15:37;9.30;99.90
5210;DHT22;2624;48.048;11.706;2023-03-24T23:20:40;9.10;99.90
5210;DHT22;2624;48.048;11.706;2023-03-24T23:25:43;9.10;99.90
5210;DHT22;2624;48.048;11.706;2023-03-24T23:30:45;9.00;99.90
5210;DHT22;2624;48.048;11.706;2023-03-24T23:35:49;9.00;99.90
5210;DHT22;2624;48.048;11.706;2023-03-24T23:40:52;9.00;99.90
5210;DHT22;2624;48.048;11.706;2023-03-24T23:45:54;8.90;99.90
5210;DHT22;2624;48.048;11.706;2023-03-24T23:50:58;8.90;99.90
5210;DHT22;2624;48.048;11.706;2023-03-24T23:56:02;8.90;99.90
